sensor_id;sensor_type;location;lat;lon;timestamp;P1;durP1;ratioP1;P2;durP2;ratioP2
61013;SDS011;46899;47.542;19.082;2023-10-08T00:01:09;6.22;;;3.15;;
61013;SDS011;46899;47.542;19.082;2023-10-08T00:04:17;8.48;;;3.40;;
61013;SDS011;46899;47.542;19.082;2023-10-08T00:07:22;6.70;;;3.10;;
61013;SDS011;46899;47.542;19.082;2023-10-08T00:10:28;8.07;;;3.17;;
61013;SDS011;46899;47.542;19.082;2023-10-08T00:13:31;7.78;;;3.40;;
61013;SDS011;46899;47.542;19.082;2023-10-08T00:16:42;7.45;;;3.33;;
61013;SDS011;46899;47.542;19.082;2023-10-08T00:19:45;6.85;;;3.60;;
61013;SDS011;46899;47.542;19.082;2023-10-08T00:22:48;8.25;;;3.20;;
61013;SDS011;46899;47.542;19.082;2023-10-08T00:25:54;8.02;;;3.00;;
61013;SDS011;46899;47.542;19.082;2023-10-08T00:28:58;7.37;;;2.97;;
61013;SDS011;46899;47.542;19.082;2023-10-08T00:32:37;8.13;;;3.15;;
61013;SDS011;46899;47.542;19.082;2023-10-08T00:35:41;6.43;;;3.10;;
61013;SDS011;46899;47.542;19.082;2023-10-08T00:38:45;6.68;;;2.67;;
61013;SDS011;46899;47.542;19.082;2023-10-08T00:41:53;7.78;;;3.08;;
61013;SDS011;46899;47.542;19.082;2023-10-08T00:45:01;7.28;;;2.90;;
61013;SDS011;46899;47.542;19.082;2023-10-08T00:51:10;6.40;;;3.30;;
61013;SDS011;46899;47.542;19.082;2023-10-08T00:54:29;6.57;;;3.20;;
61013;SDS011;46899;47.542;19.082;2023-10-08T00:57:35;9.73;;;3.00;;
61013;SDS011;46899;47.542;19.082;2023-10-08T01:00:39;6.93;;;3.27;;
61013;SDS011;46899;47.542;19.082;2023-10-08T01:06:49;7.95;;;3.28;;
61013;SDS011;46899;47.542;19.082;2023-10-08T01:10:01;8.63;;;3.12;;
61013;SDS011;46899;47.542;19.082;2023-10-08T01:13:13;11.60;;;3.28;;
61013;SDS011;46899;47.542;19.082;2023-10-08T01:16:23;10.70;;;3.35;;
61013;SDS011;46899;47.542;19.082;2023-10-08T01:19:27;5.90;;;2.80;;
61013;SDS011;46899;47.542;19.082;2023-10-08T01:22:30;9.45;;;3.30;;
61013;SDS011;46899;47.542;19.082;2023-10-08T01:25:33;7.65;;;3.05;;
61013;SDS011;46899;47.542;19.082;2023-10-08T01:28:36;7.55;;;3.70;;
61013;SDS011;46899;47.542;19.082;2023-10-08T01:31:39;8.02;;;3.28;;
61013;SDS011;46899;47.542;19.082;2023-10-08T01:34:43;6.93;;;3.17;;
61013;SDS011;46899;47.542;19.082;2023-10-08T01:37:49;5.62;;;2.95;;
61013;SDS011;46899;47.542;19.082;2023-10-08T01:40:53;8.85;;;3.05;;
61013;SDS011;46899;47.542;19.082;2023-10-08T01:43:56;8.15;;;3.10;;
61013;SDS011;46899;47.542;19.082;2023-10-08T01:47:02;9.15;;;3.60;;
61013;SDS011;46899;47.542;19.082;2023-10-08T01:50:07;9.25;;;2.70;;
61013;SDS011;46899;47.542;19.082;2023-10-08T01:53:23;6.60;;;3.17;;
61013;SDS011;46899;47.542;19.082;2023-10-08T01:56:26;7.22;;;3.05;;
61013;SDS011;46899;47.542;19.082;2023-10-08T01:59:30;10.15;;;2.95;;
61013;SDS011;46899;47.542;19.082;2023-10-08T02:02:34;7.87;;;2.97;;
61013;SDS011;46899;47.542;19.082;2023-10-08T02:05:37;8.40;;;2.97;;
61013;SDS011;46899;47.542;19.082;2023-10-08T02:08:44;6.40;;;2.60;;
61013;SDS011;46899;47.542;19.082;2023-10-08T02:11:48;8.70;;;3.10;;
61013;SDS011;46899;47.542;19.082;2023-10-08T02:14:56;9.77;;;3.37;;
61013;SDS011;46899;47.542;19.082;2023-10-08T02:17:58;6.05;;;3.00;;
61013;SDS011;46899;47.542;19.082;2023-10-08T02:21:02;9.05;;;3.42;;
61013;SDS011;46899;47.542;19.082;2023-10-08T02:24:08;11.12;;;3.55;;
61013;SDS011;46899;47.542;19.082;2023-10-08T02:27:13;7.75;;;3.30;;
61013;SDS011;46899;47.542;19.082;2023-10-08T02:30:17;7.22;;;3.17;;
61013;SDS011;46899;47.542;19.082;2023-10-08T02:33:21;10.18;;;3.35;;
61013;SDS011;46899;47.542;19.082;2023-10-08T02:36:23;6.28;;;2.90;;
61013;SDS011;46899;47.542;19.082;2023-10-08T02:39:26;8.23;;;3.08;;
61013;SDS011;46899;47.542;19.082;2023-10-08T02:42:30;10.32;;;3.40;;
61013;SDS011;46899;47.542;19.082;2023-10-08T02:45:34;10.00;;;2.95;;
61013;SDS011;46899;47.542;19.082;2023-10-08T02:48:41;6.25;;;3.05;;
61013;SDS011;46899;47.542;19.082;2023-10-08T02:51:44;8.43;;;3.00;;
61013;SDS011;46899;47.542;19.082;2023-10-08T02:54:48;11.77;;;3.42;;
61013;SDS011;46899;47.542;19.082;2023-10-08T02:57:55;6.45;;;2.90;;
61013;SDS011;46899;47.542;19.082;2023-10-08T03:00:58;7.85;;;2.83;;
61013;SDS011;46899;47.542;19.082;2023-10-08T03:04:03;10.52;;;3.62;;
61013;SDS011;46899;47.542;19.082;2023-10-08T03:07:07;10.98;;;3.33;;
61013;SDS011;46899;47.542;19.082;2023-10-08T03:10:14;7.07;;;3.15;;
61013;SDS011;46899;47.542;19.082;2023-10-08T03:13:23;10.98;;;3.62;;
61013;SDS011;46899;47.542;19.082;2023-10-08T03:16:29;10.40;;;3.12;;
61013;SDS011;46899;47.542;19.082;2023-10-08T03:19:39;10.25;;;3.00;;
61013;SDS011;46899;47.542;19.082;2023-10-08T03:22:47;10.68;;;3.33;;
61013;SDS011;46899;47.542;19.082;2023-10-08T03:25:50;6.78;;;2.90;;
61013;SDS011;46899;47.542;19.082;2023-10-08T03:29:23;10.98;;;3.08;;
61013;SDS011;46899;47.542;19.082;2023-10-08T03:32:33;9.40;;;2.83;;
61013;SDS011;46899;47.542;19.082;2023-10-08T03:35:38;9.23;;;3.00;;
61013;SDS011;46899;47.542;19.082;2023-10-08T03:38:42;8.82;;;3.08;;
61013;SDS011;46899;47.542;19.082;2023-10-08T03:41:52;7.72;;;3.05;;
61013;SDS011;46899;47.542;19.082;2023-10-08T03:45:08;8.32;;;3.10;;
61013;SDS011;46899;47.542;19.082;2023-10-08T03:48:15;6.43;;;2.75;;
61013;SDS011;46899;47.542;19.082;2023-10-08T03:51:18;7.47;;;2.80;;
61013;SDS011;46899;47.542;19.082;2023-10-08T03:54:24;14.05;;;3.25;;
61013;SDS011;46899;47.542;19.082;2023-10-08T03:57:36;8.95;;;3.47;;
61013;SDS011;46899;47.542;19.082;2023-10-08T04:00:45;9.43;;;3.45;;
61013;SDS011;46899;47.542;19.082;2023-10-08T04:03:48;9.00;;;2.80;;
61013;SDS011;46899;47.542;19.082;2023-10-08T04:06:54;8.68;;;3.15;;
61013;SDS011;46899;47.542;19.082;2023-10-08T04:10:00;8.15;;;3.00;;
61013;SDS011;46899;47.542;19.082;2023-10-08T04:13:12;4.90;;;2.67;;
61013;SDS011;46899;47.542;19.082;2023-10-08T04:16:19;6.07;;;3.00;;
61013;SDS011;46899;47.542;19.082;2023-10-08T04:19:22;9.23;;;2.65;;
61013;SDS011;46899;47.542;19.082;2023-10-08T04:22:32;7.75;;;3.12;;
61013;SDS011;46899;47.542;19.082;2023-10-08T04:25:35;8.57;;;2.92;;
61013;SDS011;46899;47.542;19.082;2023-10-08T04:28:38;7.22;;;3.50;;
61013;SDS011;46899;47.542;19.082;2023-10-08T04:31:43;8.45;;;3.30;;
61013;SDS011;46899;47.542;19.082;2023-10-08T04:34:46;11.32;;;2.97;;
61013;SDS011;46899;47.542;19.082;2023-10-08T04:37:49;10.48;;;3.25;;
61013;SDS011;46899;47.542;19.082;2023-10-08T04:44:04;9.80;;;2.85;;
61013;SDS011;46899;47.542;19.082;2023-10-08T04:47:14;8.52;;;3.35;;
61013;SDS011;46899;47.542;19.082;2023-10-08T04:50:38;8.52;;;2.60;;
61013;SDS011;46899;47.542;19.082;2023-10-08T04:53:41;7.43;;;2.70;;
61013;SDS011;46899;47.542;19.082;2023-10-08T04:56:46;8.18;;;2.70;;
61013;SDS011;46899;47.542;19.082;2023-10-08T04:59:54;8.55;;;2.90;;
61013;SDS011;46899;47.542;19.082;2023-10-08T05:03:00;10.40;;;2.85;;
61013;SDS011;46899;47.542;19.082;2023-10-08T05:06:13;10.68;;;3.00;;
61013;SDS011;46899;47.542;19.082;2023-10-08T05:09:29;8.52;;;2.80;;
61013;SDS011;46899;47.542;19.082;2023-10-08T05:13:01;8.80;;;2.90;;
61013;SDS011;46899;47.542;19.082;2023-10-08T05:16:07;10.30;;;3.17;;
61013;SDS011;46899;47.542;19.082;2023-10-08T05:19:36;11.30;;;3.40;;
61013;SDS011;46899;47.542;19.082;2023-10-08T05:22:42;7.50;;;2.58;;
61013;SDS011;46899;47.542;19.082;2023-10-08T05:25:51;13.10;;;3.12;;
61013;SDS011;46899;47.542;19.082;2023-10-08T05:29:11;11.57;;;3.10;;
61013;SDS011;46899;47.542;19.082;2023-10-08T05:32:48;10.27;;;2.85;;
61013;SDS011;46899;47.542;19.082;2023-10-08T05:36:14;11.77;;;3.62;;
61013;SDS011;46899;47.542;19.082;2023-10-08T05:39:31;9.73;;;2.92;;
61013;SDS011;46899;47.542;19.082;2023-10-08T05:42:58;12.02;;;3.03;;
61013;SDS011;46899;47.542;19.082;2023-10-08T05:46:16;11.35;;;3.17;;
61013;SDS011;46899;47.542;19.082;2023-10-08T05:49:25;11.35;;;3.08;;
61013;SDS011;46899;47.542;19.082;2023-10-08T05:52:33;7.12;;;3.25;;
61013;SDS011;46899;47.542;19.082;2023-10-08T05:56:05;11.12;;;3.10;;
61013;SDS011;46899;47.542;19.082;2023-10-08T05:59:19;13.20;;;3.42;;
61013;SDS011;46899;47.542;19.082;2023-10-08T06:02:30;11.05;;;4.03;;
61013;SDS011;46899;47.542;19.082;2023-10-08T06:05:38;9.88;;;3.15;;
61013;SDS011;46899;47.542;19.082;2023-10-08T06:08:49;8.45;;;3.17;;
61013;SDS011;46899;47.542;19.082;2023-10-08T06:12:09;6.15;;;2.97;;
61013;SDS011;46899;47.542;19.082;2023-10-08T06:15:22;6.78;;;3.03;;
61013;SDS011;46899;47.542;19.082;2023-10-08T06:18:40;6.10;;;2.87;;
61013;SDS011;46899;47.542;19.082;2023-10-08T06:21:43;11.02;;;3.40;;
61013;SDS011;46899;47.542;19.082;2023-10-08T06:24:47;9.50;;;3.10;;
61013;SDS011;46899;47.542;19.082;2023-10-08T06:27:50;16.33;;;3.50;;
61013;SDS011;46899;47.542;19.082;2023-10-08T06:30:58;10.95;;;3.60;;
61013;SDS011;46899;47.542;19.082;2023-10-08T06:34:01;8.35;;;3.10;;
61013;SDS011;46899;47.542;19.082;2023-10-08T06:37:06;8.98;;;3.08;;
61013;SDS011;46899;47.542;19.082;2023-10-08T06:40:11;15.05;;;3.75;;
61013;SDS011;46899;47.542;19.082;2023-10-08T06:43:36;9.65;;;3.12;;
61013;SDS011;46899;47.542;19.082;2023-10-08T06:46:39;15.63;;;3.25;;
61013;SDS011;46899;47.542;19.082;2023-10-08T06:49:43;11.60;;;3.25;;
61013;SDS011;46899;47.542;19.082;2023-10-08T06:52:47;16.50;;;3.73;;
61013;SDS011;46899;47.542;19.082;2023-10-08T06:55:51;6.60;;;2.78;;
61013;SDS011;46899;47.542;19.082;2023-10-08T06:58:59;6.93;;;2.80;;
61013;SDS011;46899;47.542;19.082;2023-10-08T07:02:04;8.18;;;3.75;;
61013;SDS011;46899;47.542;19.082;2023-10-08T07:05:10;11.15;;;3.37;;
61013;SDS011;46899;47.542;19.082;2023-10-08T07:08:14;11.23;;;3.62;;
61013;SDS011;46899;47.542;19.082;2023-10-08T07:11:17;7.30;;;2.97;;
61013;SDS011;46899;47.542;19.082;2023-10-08T07:14:24;8.52;;;3.25;;
61013;SDS011;46899;47.542;19.082;2023-10-08T07:17:31;9.68;;;3.37;;
61013;SDS011;46899;47.542;19.082;2023-10-08T07:20:44;13.57;;;3.65;;
61013;SDS011;46899;47.542;19.082;2023-10-08T07:23:48;11.30;;;3.42;;
61013;SDS011;46899;47.542;19.082;2023-10-08T07:27:01;10.63;;;3.35;;
61013;SDS011;46899;47.542;19.082;2023-10-08T07:30:11;8.43;;;3.15;;
61013;SDS011;46899;47.542;19.082;2023-10-08T07:33:15;11.90;;;3.20;;
61013;SDS011;46899;47.542;19.082;2023-10-08T07:36:20;7.07;;;3.47;;
61013;SDS011;46899;47.542;19.082;2023-10-08T07:39:23;10.13;;;3.30;;
61013;SDS011;46899;47.542;19.082;2023-10-08T07:42:36;8.50;;;3.10;;
61013;SDS011;46899;47.542;19.082;2023-10-08T07:45:40;12.82;;;3.30;;
61013;SDS011;46899;47.542;19.082;2023-10-08T07:48:47;8.98;;;3.10;;
61013;SDS011;46899;47.542;19.082;2023-10-08T07:51:53;11.18;;;3.60;;
61013;SDS011;46899;47.542;19.082;2023-10-08T07:54:57;9.95;;;3.30;;
61013;SDS011;46899;47.542;19.082;2023-10-08T07:58:00;7.57;;;2.87;;
61013;SDS011;46899;47.542;19.082;2023-10-08T08:01:06;10.30;;;3.30;;
61013;SDS011;46899;47.542;19.082;2023-10-08T08:04:11;9.13;;;3.37;;
61013;SDS011;46899;47.542;19.082;2023-10-08T08:07:25;7.57;;;3.08;;
61013;SDS011;46899;47.542;19.082;2023-10-08T08:10:28;12.88;;;3.62;;
61013;SDS011;46899;47.542;19.082;2023-10-08T08:13:32;8.48;;;3.30;;
61013;SDS011;46899;47.542;19.082;2023-10-08T08:16:38;10.65;;;3.70;;
61013;SDS011;46899;47.542;19.082;2023-10-08T08:19:41;7.10;;;3.20;;
61013;SDS011;46899;47.542;19.082;2023-10-08T08:22:52;8.27;;;3.33;;
61013;SDS011;46899;47.542;19.082;2023-10-08T08:25:57;8.45;;;2.97;;
61013;SDS011;46899;47.542;19.082;2023-10-08T08:29:14;15.32;;;3.50;;
61013;SDS011;46899;47.542;19.082;2023-10-08T08:32:18;7.70;;;3.28;;
61013;SDS011;46899;47.542;19.082;2023-10-08T08:35:24;13.90;;;3.30;;
61013;SDS011;46899;47.542;19.082;2023-10-08T08:38:27;10.95;;;3.20;;
61013;SDS011;46899;47.542;19.082;2023-10-08T08:41:38;7.95;;;3.15;;
61013;SDS011;46899;47.542;19.082;2023-10-08T08:44:41;11.80;;;3.60;;
61013;SDS011;46899;47.542;19.082;2023-10-08T08:47:48;10.48;;;2.95;;
61013;SDS011;46899;47.542;19.082;2023-10-08T08:50:51;12.43;;;3.65;;
61013;SDS011;46899;47.542;19.082;2023-10-08T08:53:56;9.60;;;3.40;;
61013;SDS011;46899;47.542;19.082;2023-10-08T08:57:03;9.85;;;3.42;;
61013;SDS011;46899;47.542;19.082;2023-10-08T09:00:07;9.98;;;3.20;;
61013;SDS011;46899;47.542;19.082;2023-10-08T09:06:16;14.37;;;3.23;;
61013;SDS011;46899;47.542;19.082;2023-10-08T09:09:19;7.35;;;2.97;;
61013;SDS011;46899;47.542;19.082;2023-10-08T09:12:26;13.65;;;3.85;;
61013;SDS011;46899;47.542;19.082;2023-10-08T09:15:29;8.93;;;2.90;;
61013;SDS011;46899;47.542;19.082;2023-10-08T09:18:34;11.05;;;3.17;;
61013;SDS011;46899;47.542;19.082;2023-10-08T09:21:37;6.60;;;2.97;;
61013;SDS011;46899;47.542;19.082;2023-10-08T09:24:41;8.07;;;2.78;;
61013;SDS011;46899;47.542;19.082;2023-10-08T09:27:45;8.83;;;2.87;;
61013;SDS011;46899;47.542;19.082;2023-10-08T09:30:58;9.52;;;2.62;;
61013;SDS011;46899;47.542;19.082;2023-10-08T09:34:01;11.23;;;3.28;;
61013;SDS011;46899;47.542;19.082;2023-10-08T09:37:06;14.13;;;3.08;;
61013;SDS011;46899;47.542;19.082;2023-10-08T09:40:12;8.75;;;2.78;;
61013;SDS011;46899;47.542;19.082;2023-10-08T09:43:23;10.02;;;3.22;;
61013;SDS011;46899;47.542;19.082;2023-10-08T09:46:31;7.53;;;2.95;;
61013;SDS011;46899;47.542;19.082;2023-10-08T09:49:40;10.40;;;3.15;;
61013;SDS011;46899;47.542;19.082;2023-10-08T09:56:20;10.80;;;3.40;;
61013;SDS011;46899;47.542;19.082;2023-10-08T09:59:23;13.70;;;3.70;;
61013;SDS011;46899;47.542;19.082;2023-10-08T10:02:27;5.63;;;3.00;;
61013;SDS011;46899;47.542;19.082;2023-10-08T10:05:34;10.30;;;3.15;;
61013;SDS011;46899;47.542;19.082;2023-10-08T10:08:38;12.10;;;3.65;;
61013;SDS011;46899;47.542;19.082;2023-10-08T10:11:50;14.60;;;3.45;;
61013;SDS011;46899;47.542;19.082;2023-10-08T10:14:56;9.65;;;3.30;;
61013;SDS011;46899;47.542;19.082;2023-10-08T10:18:09;12.05;;;3.40;;
61013;SDS011;46899;47.542;19.082;2023-10-08T10:24:22;6.75;;;2.75;;
61013;SDS011;46899;47.542;19.082;2023-10-08T10:27:30;8.77;;;2.70;;
61013;SDS011;46899;47.542;19.082;2023-10-08T10:30:33;6.00;;;2.40;;
61013;SDS011;46899;47.542;19.082;2023-10-08T10:33:36;5.12;;;2.25;;
61013;SDS011;46899;47.542;19.082;2023-10-08T10:36:43;5.85;;;2.20;;
61013;SDS011;46899;47.542;19.082;2023-10-08T10:39:54;3.25;;;2.00;;
61013;SDS011;46899;47.542;19.082;2023-10-08T10:43:03;5.37;;;1.87;;
61013;SDS011;46899;47.542;19.082;2023-10-08T10:46:09;3.70;;;1.30;;
61013;SDS011;46899;47.542;19.082;2023-10-08T10:49:32;2.03;;;1.00;;
61013;SDS011;46899;47.542;19.082;2023-10-08T10:52:39;3.92;;;1.20;;
61013;SDS011;46899;47.542;19.082;2023-10-08T10:55:54;4.78;;;1.20;;
61013;SDS011;46899;47.542;19.082;2023-10-08T10:59:02;1.08;;;0.80;;
61013;SDS011;46899;47.542;19.082;2023-10-08T11:02:29;1.30;;;0.80;;
61013;SDS011;46899;47.542;19.082;2023-10-08T11:05:35;2.00;;;0.90;;
61013;SDS011;46899;47.542;19.082;2023-10-08T11:08:42;3.67;;;0.90;;
61013;SDS011;46899;47.542;19.082;2023-10-08T11:11:49;2.58;;;0.85;;
61013;SDS011;46899;47.542;19.082;2023-10-08T11:14:57;0.60;;;0.55;;
61013;SDS011;46899;47.542;19.082;2023-10-08T11:18:01;1.48;;;0.70;;
61013;SDS011;46899;47.542;19.082;2023-10-08T11:21:08;2.15;;;1.20;;
61013;SDS011;46899;47.542;19.082;2023-10-08T11:27:37;2.20;;;1.00;;
61013;SDS011;46899;47.542;19.082;2023-10-08T11:30:41;2.12;;;0.60;;
61013;SDS011;46899;47.542;19.082;2023-10-08T11:33:45;1.80;;;0.90;;
61013;SDS011;46899;47.542;19.082;2023-10-08T11:36:58;2.08;;;0.60;;
61013;SDS011;46899;47.542;19.082;2023-10-08T11:40:02;2.25;;;0.60;;
61013;SDS011;46899;47.542;19.082;2023-10-08T11:43:32;1.20;;;0.50;;
61013;SDS011;46899;47.542;19.082;2023-10-08T11:46:38;2.25;;;0.47;;
61013;SDS011;46899;47.542;19.082;2023-10-08T11:49:41;1.60;;;0.90;;
61013;SDS011;46899;47.542;19.082;2023-10-08T11:52:52;5.60;;;1.00;;
61013;SDS011;46899;47.542;19.082;2023-10-08T11:55:55;1.62;;;0.90;;
61013;SDS011;46899;47.542;19.082;2023-10-08T11:59:02;3.65;;;0.65;;
61013;SDS011;46899;47.542;19.082;2023-10-08T12:02:10;3.55;;;1.05;;
61013;SDS011;46899;47.542;19.082;2023-10-08T12:05:19;1.58;;;0.40;;
61013;SDS011;46899;47.542;19.082;2023-10-08T12:08:23;0.88;;;0.47;;
61013;SDS011;46899;47.542;19.082;2023-10-08T12:11:26;1.75;;;0.50;;
61013;SDS011;46899;47.542;19.082;2023-10-08T12:14:36;0.90;;;0.45;;
61013;SDS011;46899;47.542;19.082;2023-10-08T12:17:40;2.03;;;0.32;;
61013;SDS011;46899;47.542;19.082;2023-10-08T12:20:43;3.30;;;0.40;;
61013;SDS011;46899;47.542;19.082;2023-10-08T12:23:50;0.85;;;0.37;;
61013;SDS011;46899;47.542;19.082;2023-10-08T12:26:53;3.40;;;0.30;;
61013;SDS011;46899;47.542;19.082;2023-10-08T12:29:58;3.93;;;0.47;;
61013;SDS011;46899;47.542;19.082;2023-10-08T12:33:03;6.68;;;0.73;;
61013;SDS011;46899;47.542;19.082;2023-10-08T12:36:10;3.40;;;0.40;;
61013;SDS011;46899;47.542;19.082;2023-10-08T12:39:14;1.55;;;0.37;;
61013;SDS011;46899;47.542;19.082;2023-10-08T12:42:20;4.35;;;0.50;;
61013;SDS011;46899;47.542;19.082;2023-10-08T12:45:23;1.10;;;0.30;;
61013;SDS011;46899;47.542;19.082;2023-10-08T12:48:27;1.65;;;0.60;;
61013;SDS011;46899;47.542;19.082;2023-10-08T12:51:30;2.70;;;0.50;;
61013;SDS011;46899;47.542;19.082;2023-10-08T12:54:37;3.22;;;0.57;;
61013;SDS011;46899;47.542;19.082;2023-10-08T12:57:47;0.60;;;0.40;;
61013;SDS011;46899;47.542;19.082;2023-10-08T13:00:56;0.75;;;0.52;;
61013;SDS011;46899;47.542;19.082;2023-10-08T13:04:06;0.98;;;0.70;;
61013;SDS011;46899;47.542;19.082;2023-10-08T13:07:19;0.75;;;0.40;;
61013;SDS011;46899;47.542;19.082;2023-10-08T13:13:32;1.55;;;0.85;;
61013;SDS011;46899;47.542;19.082;2023-10-08T13:16:36;0.82;;;0.75;;
61013;SDS011;46899;47.542;19.082;2023-10-08T13:19:41;2.15;;;0.43;;
61013;SDS011;46899;47.542;19.082;2023-10-08T13:22:44;0.82;;;0.60;;
61013;SDS011;46899;47.542;19.082;2023-10-08T13:25:49;0.68;;;0.57;;
61013;SDS011;46899;47.542;19.082;2023-10-08T13:29:02;2.12;;;0.88;;
61013;SDS011;46899;47.542;19.082;2023-10-08T13:32:05;1.65;;;0.98;;
61013;SDS011;46899;47.542;19.082;2023-10-08T13:35:08;4.55;;;1.00;;
61013;SDS011;46899;47.542;19.082;2023-10-08T13:38:14;0.77;;;0.52;;
61013;SDS011;46899;47.542;19.082;2023-10-08T13:41:19;1.15;;;0.55;;
61013;SDS011;46899;47.542;19.082;2023-10-08T13:44:22;3.22;;;0.80;;
61013;SDS011;46899;47.542;19.082;2023-10-08T13:47:32;0.98;;;0.70;;
61013;SDS011;46899;47.542;19.082;2023-10-08T13:50:37;0.85;;;0.85;;
61013;SDS011;46899;47.542;19.082;2023-10-08T13:53:47;0.88;;;0.80;;
61013;SDS011;46899;47.542;19.082;2023-10-08T13:56:56;1.37;;;1.23;;
61013;SDS011;46899;47.542;19.082;2023-10-08T14:00:01;3.08;;;0.70;;
61013;SDS011;46899;47.542;19.082;2023-10-08T14:03:15;2.47;;;0.75;;
61013;SDS011;46899;47.542;19.082;2023-10-08T14:06:24;1.95;;;0.90;;
61013;SDS011;46899;47.542;19.082;2023-10-08T14:09:28;1.37;;;1.00;;
61013;SDS011;46899;47.542;19.082;2023-10-08T14:12:35;3.00;;;0.80;;
61013;SDS011;46899;47.542;19.082;2023-10-08T14:15:40;1.30;;;0.80;;
61013;SDS011;46899;47.542;19.082;2023-10-08T14:18:50;2.50;;;1.10;;
61013;SDS011;46899;47.542;19.082;2023-10-08T14:21:57;2.05;;;0.80;;
61013;SDS011;46899;47.542;19.082;2023-10-08T14:25:08;1.92;;;1.20;;
61013;SDS011;46899;47.542;19.082;2023-10-08T14:28:18;2.55;;;1.10;;
61013;SDS011;46899;47.542;19.082;2023-10-08T14:31:42;2.80;;;1.30;;
61013;SDS011;46899;47.542;19.082;2023-10-08T14:34:47;2.85;;;1.40;;
61013;SDS011;46899;47.542;19.082;2023-10-08T14:37:57;1.90;;;1.37;;
61013;SDS011;46899;47.542;19.082;2023-10-08T14:41:24;2.60;;;1.20;;
61013;SDS011;46899;47.542;19.082;2023-10-08T14:44:46;2.75;;;1.30;;
61013;SDS011;46899;47.542;19.082;2023-10-08T14:47:50;2.65;;;1.45;;
61013;SDS011;46899;47.542;19.082;2023-10-08T14:50:53;5.03;;;1.70;;
61013;SDS011;46899;47.542;19.082;2023-10-08T14:53:58;3.30;;;1.70;;
61013;SDS011;46899;47.542;19.082;2023-10-08T14:57:03;3.03;;;1.30;;
61013;SDS011;46899;47.542;19.082;2023-10-08T15:00:11;1.40;;;1.30;;
61013;SDS011;46899;47.542;19.082;2023-10-08T15:03:15;2.72;;;1.60;;
61013;SDS011;46899;47.542;19.082;2023-10-08T15:06:19;2.58;;;1.17;;
61013;SDS011;46899;47.542;19.082;2023-10-08T15:09:23;4.67;;;1.47;;
61013;SDS011;46899;47.542;19.082;2023-10-08T15:12:27;2.67;;;1.40;;
61013;SDS011;46899;47.542;19.082;2023-10-08T15:15:30;2.45;;;1.40;;
61013;SDS011;46899;47.542;19.082;2023-10-08T15:18:37;3.10;;;1.67;;
61013;SDS011;46899;47.542;19.082;2023-10-08T15:21:45;2.22;;;1.45;;
61013;SDS011;46899;47.542;19.082;2023-10-08T15:24:53;2.60;;;1.70;;
61013;SDS011;46899;47.542;19.082;2023-10-08T15:27:55;3.37;;;1.60;;
61013;SDS011;46899;47.542;19.082;2023-10-08T15:30:58;2.50;;;1.50;;
61013;SDS011;46899;47.542;19.082;2023-10-08T15:34:02;1.95;;;1.50;;
61013;SDS011;46899;47.542;19.082;2023-10-08T15:40:10;2.67;;;1.55;;
61013;SDS011;46899;47.542;19.082;2023-10-08T15:43:23;3.22;;;1.90;;
61013;SDS011;46899;47.542;19.082;2023-10-08T15:46:26;4.60;;;1.60;;
61013;SDS011;46899;47.542;19.082;2023-10-08T15:49:30;3.50;;;1.83;;
61013;SDS011;46899;47.542;19.082;2023-10-08T15:52:33;4.20;;;1.70;;
61013;SDS011;46899;47.542;19.082;2023-10-08T15:55:36;6.00;;;1.90;;
61013;SDS011;46899;47.542;19.082;2023-10-08T15:58:40;3.72;;;1.65;;
61013;SDS011;46899;47.542;19.082;2023-10-08T16:01:43;3.25;;;1.73;;
61013;SDS011;46899;47.542;19.082;2023-10-08T16:04:49;3.28;;;1.67;;
61013;SDS011;46899;47.542;19.082;2023-10-08T16:07:52;2.78;;;1.62;;
61013;SDS011;46899;47.542;19.082;2023-10-08T16:11:01;3.42;;;1.77;;
61013;SDS011;46899;47.542;19.082;2023-10-08T16:14:04;8.73;;;2.33;;
61013;SDS011;46899;47.542;19.082;2023-10-08T16:17:07;4.53;;;2.03;;
61013;SDS011;46899;47.542;19.082;2023-10-08T16:20:12;2.65;;;1.73;;
61013;SDS011;46899;47.542;19.082;2023-10-08T16:23:18;3.65;;;1.92;;
61013;SDS011;46899;47.542;19.082;2023-10-08T16:26:21;3.50;;;2.00;;
61013;SDS011;46899;47.542;19.082;2023-10-08T16:29:24;4.05;;;2.00;;
61013;SDS011;46899;47.542;19.082;2023-10-08T16:32:27;4.15;;;2.22;;
61013;SDS011;46899;47.542;19.082;2023-10-08T16:35:30;6.30;;;2.22;;
61013;SDS011;46899;47.542;19.082;2023-10-08T16:38:33;3.55;;;2.00;;
61013;SDS011;46899;47.542;19.082;2023-10-08T16:41:37;4.72;;;2.00;;
61013;SDS011;46899;47.542;19.082;2023-10-08T16:44:42;4.95;;;2.30;;
61013;SDS011;46899;47.542;19.082;2023-10-08T16:47:46;5.00;;;2.20;;
61013;SDS011;46899;47.542;19.082;2023-10-08T16:50:50;5.25;;;2.10;;
61013;SDS011;46899;47.542;19.082;2023-10-08T16:53:54;5.28;;;2.50;;
61013;SDS011;46899;47.542;19.082;2023-10-08T16:56:57;4.70;;;2.05;;
61013;SDS011;46899;47.542;19.082;2023-10-08T17:00:00;4.70;;;2.28;;
61013;SDS011;46899;47.542;19.082;2023-10-08T17:03:15;3.78;;;2.25;;
61013;SDS011;46899;47.542;19.082;2023-10-08T17:06:19;6.78;;;2.08;;
61013;SDS011;46899;47.542;19.082;2023-10-08T17:09:23;6.18;;;2.60;;
61013;SDS011;46899;47.542;19.082;2023-10-08T17:12:29;5.87;;;2.30;;
61013;SDS011;46899;47.542;19.082;2023-10-08T17:15:32;4.47;;;2.10;;
61013;SDS011;46899;47.542;19.082;2023-10-08T17:18:35;5.97;;;2.10;;
61013;SDS011;46899;47.542;19.082;2023-10-08T17:21:38;8.48;;;2.70;;
61013;SDS011;46899;47.542;19.082;2023-10-08T17:24:41;6.53;;;2.40;;
61013;SDS011;46899;47.542;19.082;2023-10-08T17:27:45;5.70;;;2.70;;
61013;SDS011;46899;47.542;19.082;2023-10-08T17:30:50;4.90;;;2.70;;
61013;SDS011;46899;47.542;19.082;2023-10-08T17:33:54;9.80;;;3.22;;
61013;SDS011;46899;47.542;19.082;2023-10-08T17:36:57;6.18;;;2.80;;
61013;SDS011;46899;47.542;19.082;2023-10-08T17:40:01;5.07;;;2.40;;
61013;SDS011;46899;47.542;19.082;2023-10-08T17:43:05;3.67;;;2.15;;
61013;SDS011;46899;47.542;19.082;2023-10-08T17:46:11;3.80;;;1.77;;
61013;SDS011;46899;47.542;19.082;2023-10-08T17:49:15;3.97;;;2.10;;
61013;SDS011;46899;47.542;19.082;2023-10-08T17:52:18;5.60;;;1.92;;
61013;SDS011;46899;47.542;19.082;2023-10-08T17:55:21;4.97;;;2.08;;
61013;SDS011;46899;47.542;19.082;2023-10-08T17:58:25;6.35;;;2.03;;
61013;SDS011;46899;47.542;19.082;2023-10-08T18:01:35;3.92;;;2.10;;
61013;SDS011;46899;47.542;19.082;2023-10-08T18:04:42;4.87;;;2.10;;
61013;SDS011;46899;47.542;19.082;2023-10-08T18:07:45;4.40;;;2.10;;
61013;SDS011;46899;47.542;19.082;2023-10-08T18:10:49;6.07;;;2.40;;
61013;SDS011;46899;47.542;19.082;2023-10-08T18:13:54;5.78;;;2.20;;
61013;SDS011;46899;47.542;19.082;2023-10-08T18:16:56;5.25;;;2.50;;
61013;SDS011;46899;47.542;19.082;2023-10-08T18:20:00;6.62;;;2.03;;
61013;SDS011;46899;47.542;19.082;2023-10-08T18:23:03;4.15;;;1.92;;
61013;SDS011;46899;47.542;19.082;2023-10-08T18:26:10;4.28;;;2.03;;
61013;SDS011;46899;47.542;19.082;2023-10-08T18:29:15;4.50;;;1.70;;
61013;SDS011;46899;47.542;19.082;2023-10-08T18:32:18;4.80;;;2.10;;
61013;SDS011;46899;47.542;19.082;2023-10-08T18:35:22;5.07;;;1.83;;
61013;SDS011;46899;47.542;19.082;2023-10-08T18:38:26;4.45;;;2.05;;
61013;SDS011;46899;47.542;19.082;2023-10-08T18:41:29;4.82;;;2.10;;
61013;SDS011;46899;47.542;19.082;2023-10-08T18:44:32;3.90;;;1.90;;
61013;SDS011;46899;47.542;19.082;2023-10-08T18:47:35;3.67;;;2.10;;
61013;SDS011;46899;47.542;19.082;2023-10-08T18:50:38;3.60;;;2.10;;
61013;SDS011;46899;47.542;19.082;2023-10-08T18:53:43;7.75;;;1.95;;